Time;durP1;ratioP1;P1;durP2;ratioP2;P2;SDS_P1;SDS_P2;PMS_P1;PMS_P2;Temp;Humidity;BMP_temperature;BMP_pressure;BME280_temperature;BME280_humidity;BME280_pressure;Samples;Min_cycle;Max_cycle;Signal;HPM_P1;HPM_P2
2021/11/08 00:00:38;;;;;;;0.80;0.80;;;9.00;43.70;;;;;;5115197;28;20042;-81
2021/11/08 00:03:11;;;;;;;1.02;0.90;;;8.90;46.00;;;;;;5115037;28;20031;-81
2021/11/08 00:05:41;;;;;;;0.85;0.85;;;8.90;51.70;;;;;;5097022;28;20152;-82
2021/11/08 00:08:08;;;;;;;1.00;0.60;;;8.90;49.50;;;;;;5115525;28;20032;-81
2021/11/08 00:10:36;;;;;;;1.33;0.60;;;8.90;50.10;;;;;;5096846;28;20038;-81
2021/11/08 00:13:06;;;;;;;0.95;0.70;;;8.90;49.70;;;;;;5114822;28;20028;-82
2021/11/08 00:18:24;;;;;;;0.65;0.60;;;8.90;49.30;;;;;;5114661;28;20081;-82
2021/11/08 00:20:52;;;;;;;0.63;0.55;;;9.00;54.80;;;;;;5097365;28;20036;-82
2021/11/08 00:23:18;;;;;;;1.48;0.95;;;8.90;59.70;;;;;;5096828;28;20038;-82
2021/11/08 00:25:44;;;;;;;1.15;0.88;;;8.90;59.90;;;;;;5115073;28;20036;-82
2021/11/08 00:28:20;;;;;;;0.82;0.70;;;8.90;65.70;;;;;;5096631;28;20043;-82
2021/11/08 00:30:49;;;;;;;0.55;0.52;;;8.90;66.90;;;;;;5114773;28;20035;-81
2021/11/08 00:33:17;;;;;;;0.50;0.50;;;8.90;55.90;;;;;;5114746;28;20027;-81
2021/11/08 00:35:48;;;;;;;0.82;0.60;;;8.90;50.10;;;;;;5114789;28;20039;-82
2021/11/08 00:38:15;;;;;;;0.85;0.70;;;8.90;52.30;;;;;;5115232;28;20040;-82
2021/11/08 00:40:43;;;;;;;0.90;0.68;;;8.90;47.10;;;;;;5096587;28;20031;-82
2021/11/08 00:43:10;;;;;;;1.65;0.80;;;8.90;44.30;;;;;;5114823;28;20035;-82
2021/11/08 00:45:38;;;;;;;0.57;0.57;;;8.90;46.90;;;;;;5114767;28;20035;-82
2021/11/08 00:48:04;;;;;;;0.52;0.52;;;9.00;43.70;;;;;;5114758;28;20122;-82
2021/11/08 00:50:31;;;;;;;0.65;0.60;;;9.00;39.40;;;;;;5114759;28;20127;-82
2021/11/08 00:52:57;;;;;;;0.40;0.40;;;8.90;37.40;;;;;;5115058;28;20054;-82
2021/11/08 00:55:25;;;;;;;0.47;0.47;;;9.00;23.30;;;;;;5095659;28;20379;-81
2021/11/08 00:57:54;;;;;;;0.55;0.50;;;9.10;21.20;;;;;;5117060;28;20055;-82
2021/11/08 01:00:24;;;;;;;1.02;0.55;;;9.10;20.20;;;;;;5117868;28;20035;-82
2021/11/08 01:02:51;;;;;;;0.55;0.55;;;9.10;25.10;;;;;;5118560;28;20490;-82
2021/11/08 01:05:17;;;;;;;0.43;0.43;;;9.10;17.20;;;;;;5099778;28;20147;-82
2021/11/08 01:07:44;;;;;;;0.77;0.73;;;9.20;13.60;;;;;;5099410;28;20127;-81
2021/11/08 01:10:13;;;;;;;0.55;0.55;;;9.20;14.70;;;;;;5099691;28;20031;-81
2021/11/08 01:12:39;;;;;;;0.50;0.50;;;9.20;12.00;;;;;;5118327;28;20032;-81
2021/11/08 01:15:06;;;;;;;0.63;0.40;;;9.20;14.30;;;;;;5099433;28;20554;-81
2021/11/08 01:17:33;;;;;;;0.40;0.40;;;9.20;9.20;;;;;;5117254;28;20063;-81
2021/11/08 01:19:59;;;;;;;0.63;0.52;;;9.20;11.90;;;;;;5118338;28;20047;-82
2021/11/08 01:22:26;;;;;;;1.02;0.80;;;9.20;13.10;;;;;;5117718;28;20067;-81
2021/11/08 01:24:55;;;;;;;1.23;0.77;;;9.20;12.60;;;;;;5099289;28;20035;-82
2021/11/08 01:27:23;;;;;;;0.65;0.52;;;9.20;15.90;;;;;;5117903;28;20035;-81
2021/11/08 01:29:49;;;;;;;1.20;0.50;;;9.20;14.70;;;;;;5117500;28;20118;-81
2021/11/08 01:32:15;;;;;;;0.60;0.60;;;9.20;14.10;;;;;;5117343;28;20052;-81
2021/11/08 01:34:41;;;;;;;0.95;0.45;;;9.30;11.20;;;;;;5099028;28;20453;-81
2021/11/08 01:37:07;;;;;;;0.50;0.40;;;9.20;14.40;;;;;;5117414;28;20479;-81
2021/11/08 01:39:35;;;;;;;1.60;0.47;;;9.30;8.30;;;;;;5098816;28;20043;-81
2021/11/08 01:42:07;;;;;;;0.40;0.40;;;9.30;9.40;;;;;;5117297;28;20040;-81
2021/11/08 01:44:33;;;;;;;0.88;0.45;;;9.30;11.00;;;;;;5117287;28;20075;-81
2021/11/08 01:47:01;;;;;;;0.60;0.60;;;9.20;11.80;;;;;;5116767;28;20108;-81
2021/11/08 01:49:28;;;;;;;0.30;0.30;;;9.20;15.40;;;;;;5098645;28;20071;-82
2021/11/08 01:51:55;;;;;;;0.77;0.40;;;9.20;17.20;;;;;;5117114;28;20039;-82
2021/11/08 01:54:23;;;;;;;0.30;0.30;;;9.20;17.00;;;;;;5098483;28;20051;-82
2021/11/08 01:56:52;;;;;;;0.47;0.30;;;9.20;11.40;;;;;;5117348;28;20043;-81
2021/11/08 01:59:19;;;;;;;0.90;0.32;;;9.30;9.60;;;;;;5116981;28;20044;-81
2021/11/08 02:01:46;;;;;;;1.23;0.40;;;9.30;8.10;;;;;;5098731;28;20039;-81
2021/11/08 02:04:11;;;;;;;0.38;0.38;;;9.30;11.80;;;;;;5098840;28;20035;-81
2021/11/08 02:06:38;;;;;;;0.73;0.57;;;9.30;12.70;;;;;;5117164;28;20104;-81
2021/11/08 02:09:05;;;;;;;0.30;0.30;;;9.20;11.40;;;;;;5115556;28;20062;-81
2021/11/08 02:11:35;;;;;;;0.20;0.20;;;9.20;13.00;;;;;;5116779;28;20035;-81
2021/11/08 02:14:02;;;;;;;0.40;0.40;;;9.20;14.20;;;;;;5116979;28;20088;-81
2021/11/08 02:16:29;;;;;;;0.40;0.40;;;9.30;9.40;;;;;;5116703;28;20047;-81
2021/11/08 02:18:56;;;;;;;0.82;0.30;;;9.30;10.60;;;;;;5117163;28;20040;-81
2021/11/08 02:21:23;;;;;;;0.40;0.40;;;9.40;1.00;;;;;;5098535;28;20032;-81
2021/11/08 02:23:50;;;;;;;0.35;0.35;;;9.50;1.00;;;;;;5116767;28;20043;-82
2021/11/08 02:26:18;;;;;;;0.40;0.40;;;9.50;1.10;;;;;;5098397;28;20053;-81
2021/11/08 02:28:46;;;;;;;0.30;0.30;;;9.50;1.00;;;;;;5099263;28;20114;-82
2021/11/08 02:31:17;;;;;;;0.40;0.40;;;9.50;3.20;;;;;;5098178;28;20108;-82
2021/11/08 02:33:44;;;;;;;0.50;0.30;;;9.40;6.20;;;;;;5116638;28;20047;-82
2021/11/08 02:36:10;;;;;;;0.40;0.40;;;9.40;7.20;;;;;;5116456;28;20035;-82
2021/11/08 02:38:41;;;;;;;0.85;0.45;;;9.30;9.90;;;;;;5098202;28;20044;-82
2021/11/08 02:41:08;;;;;;;0.40;0.40;;;9.30;8.50;;;;;;5116529;28;20482;-82
2021/11/08 02:43:35;;;;;;;2.17;0.50;;;9.30;5.20;;;;;;5097798;28;20032;-82
2021/11/08 02:46:38;;;;;;;0.30;0.30;;;9.40;4.70;;;;;;5098070;28;20490;-82
2021/11/08 02:48:57;;;;;;;0.40;0.40;;;9.40;5.50;;;;;;5112064;28;20071;-82
2021/11/08 02:51:24;;;;;;;0.50;0.50;;;9.40;6.80;;;;;;5116213;28;20088;-82
2021/11/08 02:53:58;;;;;;;0.22;0.22;;;9.40;7.60;;;;;;5116006;28;20111;-82
2021/11/08 02:56:24;;;;;;;0.57;0.35;;;9.30;9.10;;;;;;5097279;28;20043;-82
2021/11/08 02:58:50;;;;;;;0.32;0.32;;;9.30;8.60;;;;;;5097568;28;20046;-82
2021/11/08 03:01:22;;;;;;;0.38;0.30;;;9.30;13.20;;;;;;5115608;28;20081;-82
2021/11/08 03:03:53;;;;;;;1.52;0.40;;;9.30;12.10;;;;;;5097424;28;20038;-82
2021/11/08 03:06:31;;;;;;;;;;;9.30;13.10;;;;;;5116342;28;20090;-82
2021/11/08 03:09:13;;;;;;;0.20;0.20;;;9.30;3.20;;;;;;5097874;28;19953;-82
2021/11/08 03:11:39;;;;;;;0.22;0.22;;;9.30;1.00;;;;;;5115938;28;20525;-82
2021/11/08 03:14:07;;;;;;;0.35;0.30;;;9.40;1.00;;;;;;5097227;28;20031;-82
2021/11/08 03:17:07;;;;;;;1.30;0.45;;;9.30;1.60;;;;;;5097607;28;20040;-81
2021/11/08 03:19:35;;;;;;;0.30;0.30;;;9.30;1.00;;;;;;5111019;28;20039;-82
2021/11/08 03:22:07;;;;;;;0.30;0.30;;;9.30;2.50;;;;;;5096166;28;20031;-82
2021/11/08 03:24:40;;;;;;;0.30;0.30;;;9.30;4.00;;;;;;5115678;28;20127;-82
2021/11/08 03:27:18;;;;;;;0.13;0.13;;;9.30;1.00;;;;;;5096848;28;20036;-81
2021/11/08 03:29:45;;;;;;;0.90;0.45;;;9.40;1.00;;;;;;5115485;28;20046;-81
2021/11/08 03:32:15;;;;;;;0.20;0.20;;;9.30;1.00;;;;;;5115284;28;20066;-81
2021/11/08 03:34:48;;;;;;;0.40;0.40;;;9.30;1.00;;;;;;5114939;28;20043;-82
2021/11/08 03:37:14;;;;;;;0.82;0.40;;;9.30;1.00;;;;;;5115805;28;20046;-82
2021/11/08 03:39:40;;;;;;;0.30;0.30;;;9.30;1.00;;;;;;5097171;28;20042;-82
2021/11/08 03:42:06;;;;;;;0.20;0.20;;;9.30;1.00;;;;;;5115162;28;20023;-82
2021/11/08 03:44:33;;;;;;;0.47;0.28;;;9.30;1.00;;;;;;5096830;28;20085;-82
2021/11/08 03:46:59;;;;;;;0.40;0.40;;;9.30;1.00;;;;;;5114927;28;20080;-81
2021/11/08 03:49:25;;;;;;;0.60;0.30;;;9.30;1.00;;;;;;5115302;28;20040;-81
2021/11/08 03:51:52;;;;;;;0.30;0.30;;;9.30;1.00;;;;;;5115033;28;20027;-82
2021/11/08 03:54:18;;;;;;;0.40;0.35;;;9.40;1.00;;;;;;5096252;28;20052;-81
2021/11/08 03:56:44;;;;;;;0.55;0.50;;;9.40;1.00;;;;;;5096634;28;20058;-82
2021/11/08 03:59:10;;;;;;;0.30;0.30;;;9.30;1.00;;;;;;5097176;28;20375;-82
2021/11/08 04:01:36;;;;;;;0.60;0.30;;;9.30;1.00;;;;;;5096448;28;20097;-82
2021/11/08 04:04:06;;;;;;;0.47;0.20;;;9.30;1.00;;;;;;5096601;28;20080;-82
2021/11/08 04:06:34;;;;;;;0.30;0.30;;;9.40;1.00;;;;;;5097088;28;20036;-82
2021/11/08 04:09:01;;;;;;;0.30;0.30;;;9.30;1.00;;;;;;5115039;28;20039;-82
2021/11/08 04:11:29;;;;;;;0.30;0.30;;;9.30;1.00;;;;;;5096846;28;20031;-82
2021/11/08 04:13:58;;;;;;;0.50;0.30;;;9.30;1.00;;;;;;5096550;28;20031;-82
2021/11/08 04:16:26;;;;;;;0.20;0.20;;;9.30;1.00;;;;;;5114551;28;20058;-82
2021/11/08 04:18:54;;;;;;;0.20;0.20;;;9.30;1.00;;;;;;5097057;28;20040;-82
2021/11/08 04:21:21;;;;;;;0.40;0.40;;;9.30;1.00;;;;;;5096483;28;20057;-81
2021/11/08 04:23:47;;;;;;;0.30;0.30;;;9.30;1.00;;;;;;5114722;28;20066;-81
2021/11/08 04:26:18;;;;;;;0.30;0.30;;;9.30;1.00;;;;;;5114954;28;20039;-81
2021/11/08 04:28:55;;;;;;;0.30;0.25;;;9.30;1.00;;;;;;5114775;28;20036;-81
2021/11/08 04:31:23;;;;;;;0.43;0.43;;;9.30;1.00;;;;;;5115062;28;20039;-81
2021/11/08 04:33:56;;;;;;;0.40;0.40;;;9.30;1.00;;;;;;5100318;28;20135;-81
2021/11/08 04:38:55;;;;;;;0.40;0.40;;;9.30;1.00;;;;;;5118338;28;20039;-81
2021/11/08 04:53:25;;;;;;;0.40;0.40;;;9.30;1.00;;;;;;5118056;28;20118;-81
2021/11/08 04:57:55;;;;;;;0.90;0.70;;;9.40;1.00;;;;;;5118972;28;20062;-81
2021/11/08 05:22:59;;;;;;;0.75;0.50;;;9.20;1.00;;;;;;5117421;28;20088;-79
2021/11/08 05:25:31;;;;;;;0.40;0.40;;;9.20;1.00;;;;;;5114378;28;20091;-80
2021/11/08 05:30:39;;;;;;;0.30;0.30;;;9.20;1.00;;;;;;5114366;28;20436;-74
2021/11/08 05:33:05;;;;;;;0.65;0.57;;;9.20;1.00;;;;;;5115179;28;20081;-78
2021/11/08 05:35:31;;;;;;;0.55;0.50;;;9.10;1.00;;;;;;5116715;28;20040;-78
2021/11/08 05:37:58;;;;;;;0.75;0.60;;;9.10;1.00;;;;;;5113732;28;20039;-79
2021/11/08 05:40:33;;;;;;;0.70;0.65;;;9.10;1.00;;;;;;5117452;28;20088;-79
2021/11/08 05:43:06;;;;;;;2.40;0.65;;;9.10;1.00;;;;;;5117381;28;20105;-79
2021/11/08 05:45:34;;;;;;;0.50;0.50;;;9.20;1.00;;;;;;5115293;28;20048;-79
2021/11/08 05:48:05;;;;;;;1.55;0.40;;;9.20;1.00;;;;;;5115570;28;20035;-79
2021/11/08 05:50:32;;;;;;;0.40;0.40;;;9.10;1.00;;;;;;5115912;28;20120;-79
2021/11/08 05:52:59;;;;;;;0.20;0.20;;;9.10;1.00;;;;;;5116027;28;20077;-79
2021/11/08 05:55:47;;;;;;;1.80;0.50;;;9.10;1.00;;;;;;5130176;27;20047;-79
2021/11/08 06:50:24;;;;;;;1.13;0.88;;;9.20;1.00;;;;;;5117385;27;20050;-81
2021/11/08 06:52:51;;;;;;;2.03;0.90;;;9.20;1.00;;;;;;5111737;28;20414;-82
2021/11/08 06:55:18;;;;;;;0.80;0.80;;;9.20;1.00;;;;;;5097050;28;20617;-82
2021/11/08 06:57:48;;;;;;;1.00;0.90;;;9.20;1.00;;;;;;5097696;28;20031;-82
2021/11/08 07:00:25;;;;;;;1.10;0.90;;;9.30;1.00;;;;;;5096812;28;20043;-84
2021/11/08 07:02:51;;;;;;;0.77;0.77;;;9.30;1.00;;;;;;5114998;28;20034;-83
2021/11/08 07:05:21;;;;;;;1.15;1.05;;;9.30;1.00;;;;;;5097422;28;20046;-84
2021/11/08 07:07:47;;;;;;;0.82;0.80;;;9.40;1.00;;;;;;5097680;28;20566;-84
2021/11/08 07:10:14;;;;;;;1.00;0.82;;;9.40;1.00;;;;;;5097010;28;20047;-84
2021/11/08 07:12:50;;;;;;;1.00;0.90;;;9.50;1.00;;;;;;5097612;28;20108;-84
2021/11/08 07:15:19;;;;;;;1.13;1.00;;;9.60;1.00;;;;;;5097373;28;20044;-84
2021/11/08 07:17:48;;;;;;;1.75;0.95;;;9.70;1.00;;;;;;5097042;28;20080;-84
2021/11/08 07:20:16;;;;;;;1.27;0.90;;;9.80;1.00;;;;;;5115487;28;20036;-84
2021/11/08 07:22:42;;;;;;;0.75;0.75;;;9.90;1.00;;;;;;5097350;28;20031;-84
2021/11/08 07:25:09;;;;;;;1.08;0.90;;;10.00;1.00;;;;;;5096325;28;20050;-84
2021/11/08 07:27:38;;;;;;;0.73;0.73;;;10.00;1.00;;;;;;5113761;28;20035;-84
2021/11/08 07:30:12;;;;;;;0.80;0.70;;;10.00;1.00;;;;;;5095701;28;20512;-84
2021/11/08 07:32:41;;;;;;;1.10;1.00;;;10.10;1.00;;;;;;5097450;28;20032;-84
2021/11/08 07:35:11;;;;;;;2.08;1.27;;;10.10;1.00;;;;;;5097120;28;20044;-84
2021/11/08 07:37:41;;;;;;;1.00;0.90;;;10.10;1.00;;;;;;5097176;28;20074;-85
2021/11/08 07:40:19;;;;;;;1.77;0.95;;;10.10;1.00;;;;;;5097568;28;20126;-85
2021/11/08 07:42:47;;;;;;;1.60;1.10;;;10.20;1.00;;;;;;5095149;28;20042;-86
2021/11/08 07:45:16;;;;;;;1.50;1.00;;;10.30;1.00;;;;;;5094296;28;20047;-85
2021/11/08 07:47:47;;;;;;;1.13;1.10;;;10.30;1.00;;;;;;5093454;28;20074;-85
2021/11/08 07:50:37;;;;;;;1.17;1.02;;;10.30;1.00;;;;;;5093622;28;20085;-85
2021/11/08 07:53:21;;;;;;;1.73;0.90;;;10.30;1.00;;;;;;5093894;28;20398;-85
2021/11/08 07:55:51;;;;;;;1.63;0.95;;;10.40;1.00;;;;;;5079440;28;20051;-85
2021/11/08 07:58:29;;;;;;;1.15;1.05;;;10.40;1.00;;;;;;5076108;28;20035;-85
2021/11/08 08:01:09;;;;;;;1.50;1.25;;;10.50;1.00;;;;;;5076229;28;20479;-85
2021/11/08 08:03:41;;;;;;;1.55;1.45;;;10.50;1.00;;;;;;5075278;28;20075;-85
2021/11/08 08:06:15;;;;;;;1.33;1.10;;;10.50;1.00;;;;;;5093308;28;20173;-85
2021/11/08 08:09:02;;;;;;;1.20;1.10;;;10.60;1.00;;;;;;5079713;28;20036;-86
2021/11/08 08:11:30;;;;;;;2.83;1.00;;;10.70;1.00;;;;;;5076804;28;20036;-86
2021/11/08 08:14:03;;;;;;;1.00;0.90;;;10.50;1.00;;;;;;5077600;28;20055;-86
2021/11/08 08:16:33;;;;;;;2.58;1.05;;;10.60;1.00;;;;;;5078523;28;20134;-86
2021/11/08 08:19:14;;;;;;;3.40;1.30;;;10.70;1.00;;;;;;5077583;28;20035;-86
2021/11/08 08:21:44;;;;;;;1.77;1.10;;;10.60;1.00;;;;;;5078638;28;20123;-86
2021/11/08 08:24:16;;;;;;;1.92;1.02;;;10.60;1.00;;;;;;5078516;28;20039;-86
2021/11/08 08:26:48;;;;;;;2.08;1.17;;;10.70;1.00;;;;;;5078512;28;20498;-86
2021/11/08 08:29:28;;;;;;;1.67;1.20;;;10.70;1.00;;;;;;5078353;28;20040;-86
2021/11/08 08:32:10;;;;;;;3.17;1.23;;;10.70;1.00;;;;;;5078319;28;20058;-86
2021/11/08 08:35:12;;;;;;;;;;;;;;;;;;;;;
2021/11/08 08:37:40;;;;;;;2.95;0.90;;;10.80;1.00;;;;;;5096504;28;20048;-85
2021/11/08 08:40:17;;;;;;;1.70;1.10;;;10.80;1.00;;;;;;5080034;28;20038;-85
2021/11/08 08:42:49;;;;;;;2.10;1.00;;;10.80;1.00;;;;;;5097240;28;20036;-86
2021/11/08 08:48:31;;;;;;;2.70;1.30;;;10.90;1.00;;;;;;5095878;28;20097;-81
2021/11/08 08:51:37;;;;;;;1.13;0.93;;;11.00;1.00;;;;;;5097362;28;20032;-80
2021/11/08 08:54:05;;;;;;;1.85;1.40;;;10.90;1.00;;;;;;5046806;28;20040;-86
2021/11/08 08:56:32;;;;;;;1.73;1.25;;;11.00;1.00;;;;;;5118113;28;20039;-86
2021/11/08 08:59:01;;;;;;;2.47;1.23;;;10.80;1.00;;;;;;5116952;28;20128;-87
2021/11/08 09:01:57;;;;;;;1.88;1.25;;;10.60;1.00;;;;;;5112384;28;20096;-85
2021/11/08 09:08:27;;;;;;;3.25;1.60;;;10.40;1.00;;;;;;5115539;27;20043;-87
2021/11/08 09:11:21;;;;;;;3.50;1.50;;;10.40;1.00;;;;;;5116666;28;20032;-86
2021/11/08 09:13:49;;;;;;;4.80;1.88;;;10.30;1.00;;;;;;5106117;28;20027;-80
2021/11/08 09:16:15;;;;;;;1.83;1.30;;;10.20;1.00;;;;;;5116687;28;20505;-82
2021/11/08 09:18:48;;;;;;;1.83;1.05;;;10.30;1.00;;;;;;5117332;28;20081;-84
2021/11/08 09:21:15;;;;;;;2.47;1.67;;;10.30;1.00;;;;;;5118444;28;20056;-84
2021/11/08 09:23:42;;;;;;;3.15;1.27;;;10.20;1.00;;;;;;5118034;28;20067;-81
2021/11/08 09:26:09;;;;;;;2.53;1.23;;;10.20;1.00;;;;;;5116641;28;20039;-83
2021/11/08 09:28:36;;;;;;;2.33;1.25;;;10.30;1.00;;;;;;5118140;28;20035;-85
2021/11/08 09:31:03;;;;;;;1.58;1.17;;;10.20;1.00;;;;;;5115506;28;20087;-83
2021/11/08 09:33:29;;;;;;;2.83;1.40;;;10.10;1.00;;;;;;5115778;28;20039;-82
2021/11/08 09:36:02;;;;;;;2.15;1.15;;;10.00;1.00;;;;;;5114768;28;20051;-85
2021/11/08 09:38:28;;;;;;;3.22;1.25;;;9.90;1.00;;;;;;5114109;28;20612;-84
2021/11/08 09:40:55;;;;;;;2.65;1.50;;;9.90;1.00;;;;;;5112734;28;20032;-78
2021/11/08 09:43:24;;;;;;;3.40;1.67;;;9.90;1.00;;;;;;5113894;28;20046;-83
2021/11/08 09:45:51;;;;;;;2.55;1.63;;;9.90;1.00;;;;;;5115519;28;20177;-83
2021/11/08 09:48:18;;;;;;;2.33;1.33;;;10.10;1.00;;;;;;5114437;28;20028;-82
2021/11/08 09:50:46;;;;;;;2.92;1.58;;;10.50;1.00;;;;;;5116514;28;20036;-82
2021/11/08 09:53:13;;;;;;;4.45;1.85;;;10.80;1.00;;;;;;5116815;28;20028;-83
2021/11/08 09:55:41;;;;;;;2.50;1.50;;;11.10;1.00;;;;;;5118852;27;20498;-83
2021/11/08 09:58:08;;;;;;;2.70;1.95;;;11.30;1.00;;;;;;5136773;27;20063;-82
2021/11/08 10:00:37;;;;;;;3.63;1.38;;;11.30;1.00;;;;;;5137525;27;20042;-82
2021/11/08 10:03:11;;;;;;;2.95;1.48;;;11.50;1.00;;;;;;5119154;27;20037;-83
2021/11/08 10:05:41;;;;;;;5.03;1.35;;;11.50;1.00;;;;;;5119016;27;20039;-83
2021/11/08 10:08:07;;;;;;;4.68;1.70;;;11.40;1.00;;;;;;5137737;27;20486;-82
2021/11/08 10:10:33;;;;;;;2.65;1.55;;;11.30;1.00;;;;;;5137263;27;20497;-82
2021/11/08 10:13:06;;;;;;;4.65;2.25;;;11.20;1.00;;;;;;5119134;27;20088;-82
2021/11/08 10:15:33;;;;;;;2.33;1.50;;;11.00;1.00;;;;;;5137631;27;20035;-82
2021/11/08 10:18:01;;;;;;;3.55;1.50;;;10.70;1.00;;;;;;5137473;27;20118;-83
2021/11/08 10:20:38;;;;;;;6.85;2.10;;;10.70;1.00;;;;;;5118988;27;20031;-82
2021/11/08 10:23:06;;;;;;;2.28;1.70;;;11.00;1.00;;;;;;5137761;27;20027;-82
2021/11/08 10:25:34;;;;;;;2.72;1.70;;;11.30;1.00;;;;;;5137368;27;20122;-82
2021/11/08 10:28:05;;;;;;;4.32;1.80;;;11.40;1.00;;;;;;5137259;27;20039;-82
2021/11/08 10:30:34;;;;;;;2.95;1.52;;;11.30;1.00;;;;;;5136543;27;20541;-82
2021/11/08 10:33:13;;;;;;;5.28;1.85;;;11.30;1.00;;;;;;5137026;27;20042;-84
2021/11/08 10:35:45;;;;;;;3.75;1.45;;;11.50;1.00;;;;;;5136752;27;20406;-82
2021/11/08 10:38:19;;;;;;;2.33;1.70;;;11.70;1.00;;;;;;5119625;27;20126;-80
2021/11/08 10:40:52;;;;;;;3.60;1.38;;;11.80;1.00;;;;;;5137179;27;20087;-80
2021/11/08 10:43:25;;;;;;;4.05;1.63;;;11.50;1.00;;;;;;5137202;27;20039;-81
2021/11/08 10:45:54;;;;;;;2.83;1.25;;;11.60;1.00;;;;;;5118639;27;20038;-81
2021/11/08 10:48:23;;;;;;;6.68;1.92;;;11.70;1.00;;;;;;5117804;27;20035;-82
2021/11/08 10:50:50;;;;;;;6.30;1.75;;;11.40;1.00;;;;;;5118244;27;20031;-82
2021/11/08 10:53:17;;;;;;;4.88;1.60;;;11.50;1.00;;;;;;5136829;27;20497;-82
2021/11/08 10:55:48;;;;;;;4.03;1.40;;;11.70;1.00;;;;;;5126141;27;20055;-82
2021/11/08 10:58:16;;;;;;;4.22;1.80;;;11.80;1.00;;;;;;5103550;28;20036;-81
2021/11/08 11:00:55;;;;;;;3.05;1.60;;;11.60;1.00;;;;;;5113916;28;20088;-81
2021/11/08 11:03:23;;;;;;;3.30;1.30;;;11.30;1.00;;;;;;5118802;28;20027;-82
2021/11/08 11:06:15;;;;;;;2.83;1.70;;;11.20;1.00;;;;;;5121165;28;20043;-82
2021/11/08 11:08:51;;;;;;;3.10;1.38;;;11.30;1.00;;;;;;5108927;28;20065;-80
2021/11/08 11:11:24;;;;;;;3.30;1.70;;;11.60;1.00;;;;;;5113552;28;20118;-81
2021/11/08 11:13:54;;;;;;;5.07;2.28;;;11.70;1.00;;;;;;5113758;28;20118;-82
2021/11/08 11:16:46;;;;;;;4.73;2.33;;;11.80;1.00;;;;;;5113430;28;20047;-82
2021/11/08 11:19:14;;;;;;;3.10;2.00;;;11.50;1.00;;;;;;5120132;28;20038;-81
2021/11/08 11:21:57;;;;;;;3.53;2.03;;;11.50;1.00;;;;;;5116637;28;20045;-80
2021/11/08 11:24:43;;;;;;;2.53;1.83;;;11.40;1.00;;;;;;5111615;28;20510;-83
2021/11/08 11:27:26;;;;;;;4.93;1.80;;;11.10;1.00;;;;;;5113028;28;20034;-80
2021/11/08 11:29:53;;;;;;;3.30;1.95;;;11.10;1.00;;;;;;5114282;28;20086;-81
2021/11/08 11:32:27;;;;;;;3.47;1.95;;;11.30;1.00;;;;;;5094704;28;20460;-81
2021/11/08 11:34:57;;;;;;;2.85;1.13;;;11.30;1.00;;;;;;5112518;28;20077;-82
2021/11/08 11:37:26;;;;;;;4.03;1.77;;;11.20;1.00;;;;;;5095105;28;20391;-80
2021/11/08 11:40:09;;;;;;;3.20;1.50;;;11.10;1.00;;;;;;5094996;28;20042;-80
2021/11/08 11:42:50;;;;;;;3.15;2.03;;;10.80;1.00;;;;;;5112345;28;20498;-80
2021/11/08 11:45:16;;;;;;;4.00;1.80;;;11.00;1.00;;;;;;5112945;28;20066;-81
2021/11/08 11:47:42;;;;;;;4.80;1.73;;;11.00;1.00;;;;;;5094632;28;20510;-79
2021/11/08 11:50:09;;;;;;;3.60;1.80;;;11.00;1.00;;;;;;5113456;28;20032;-81
2021/11/08 11:52:43;;;;;;;2.42;1.83;;;10.90;1.00;;;;;;5114442;28;20039;-79
2021/11/08 11:55:10;;;;;;;2.15;1.50;;;10.80;1.00;;;;;;5112551;28;20063;-79
2021/11/08 11:57:36;;;;;;;3.50;2.10;;;10.80;1.00;;;;;;5112557;28;20035;-79
2021/11/08 12:00:05;;;;;;;3.35;1.77;;;10.90;1.00;;;;;;5112595;28;20554;-77
2021/11/08 12:02:33;;;;;;;4.82;2.28;;;11.10;1.00;;;;;;5111894;28;20056;-81
2021/11/08 12:04:59;;;;;;;2.53;1.70;;;11.10;1.00;;;;;;5095927;28;20478;-80
2021/11/08 12:07:25;;;;;;;4.82;2.00;;;11.10;1.00;;;;;;5113757;28;20123;-80
2021/11/08 12:09:52;;;;;;;4.75;1.90;;;11.00;1.00;;;;;;5114277;28;20032;-80
2021/11/08 12:12:25;;;;;;;4.45;2.00;;;11.10;1.00;;;;;;5114841;28;20092;-79
2021/11/08 12:15:07;;;;;;;2.50;1.60;;;11.10;1.00;;;;;;5114273;28;20146;-80
2021/11/08 12:17:44;;;;;;;1.73;1.30;;;11.10;1.00;;;;;;5112845;28;20059;-75
2021/11/08 12:20:16;;;;;;;3.28;1.77;;;11.20;1.00;;;;;;5078304;28;20116;-80
2021/11/08 12:22:43;;;;;;;4.00;1.63;;;11.40;1.00;;;;;;5110881;28;20554;-79
2021/11/08 12:25:15;;;;;;;4.90;2.17;;;11.50;1.00;;;;;;5078810;28;20036;-81
2021/11/08 12:27:42;;;;;;;5.57;1.92;;;11.70;1.00;;;;;;5092471;28;20093;-81
2021/11/08 12:30:30;;;;;;;3.10;1.90;;;11.70;1.00;;;;;;5074769;28;20032;-81
2021/11/08 12:32:59;;;;;;;2.47;1.60;;;11.80;1.00;;;;;;5108779;28;20043;-81
2021/11/08 12:35:29;;;;;;;6.32;1.90;;;11.70;1.00;;;;;;5114219;28;20036;-80
2021/11/08 12:37:55;;;;;;;6.30;2.15;;;11.70;1.00;;;;;;5113872;28;20595;-81
2021/11/08 12:40:30;;;;;;;3.05;1.80;;;11.90;1.00;;;;;;5113845;28;20063;-81
2021/11/08 12:42:56;;;;;;;3.20;1.77;;;11.70;1.00;;;;;;5114294;28;20044;-81
2021/11/08 12:45:27;;;;;;;2.33;1.75;;;11.60;1.00;;;;;;5096213;28;20046;-80
2021/11/08 12:48:04;;;;;;;3.47;1.92;;;11.60;1.00;;;;;;5095610;28;20047;-81
2021/11/08 12:50:36;;;;;;;4.78;2.05;;;11.60;1.00;;;;;;5096312;28;20035;-81
2021/11/08 12:53:04;;;;;;;3.47;2.00;;;11.40;1.00;;;;;;5115612;28;20035;-81
2021/11/08 12:55:41;;;;;;;5.03;2.08;;;11.40;1.00;;;;;;5117742;28;20051;-82
2021/11/08 12:58:08;;;;;;;4.65;2.17;;;11.50;1.00;;;;;;5118434;28;20039;-81
2021/11/08 13:00:39;;;;;;;4.28;2.08;;;11.50;1.00;;;;;;5099570;28;20027;-81
2021/11/08 13:03:13;;;;;;;3.05;1.83;;;11.50;1.00;;;;;;5118178;28;20074;-81
2021/11/08 13:05:46;;;;;;;4.25;1.58;;;11.50;1.00;;;;;;5100030;28;20042;-81
2021/11/08 13:08:22;;;;;;;4.72;1.92;;;11.50;1.00;;;;;;5099556;28;20031;-81
2021/11/08 13:11:10;;;;;;;4.00;1.77;;;11.50;1.00;;;;;;5117693;28;20094;-81
2021/11/08 13:13:55;;;;;;;6.95;2.22;;;11.60;1.00;;;;;;5100607;28;20036;-81
2021/11/08 13:16:33;;;;;;;7.10;2.22;;;11.50;1.00;;;;;;5117703;28;20043;-81
2021/11/08 13:19:05;;;;;;;4.00;1.88;;;11.50;1.00;;;;;;5117908;28;20516;-81
2021/11/08 13:21:31;;;;;;;5.75;1.60;;;11.50;1.00;;;;;;5118426;28;20122;-80
2021/11/08 13:23:57;;;;;;;5.18;2.00;;;11.40;1.00;;;;;;5117489;28;20116;-82
2021/11/08 13:26:24;;;;;;;3.13;1.77;;;11.40;1.00;;;;;;5099366;28;20063;-82
2021/11/08 13:28:50;;;;;;;6.40;1.80;;;11.30;1.00;;;;;;5117997;28;20032;-81
2021/11/08 13:31:16;;;;;;;7.10;2.22;;;11.40;1.00;;;;;;5117464;28;20027;-81
2021/11/08 13:33:46;;;;;;;3.97;1.58;;;11.30;1.00;;;;;;5117543;28;20035;-82
2021/11/08 13:36:13;;;;;;;3.72;2.17;;;11.30;1.00;;;;;;5118005;28;20116;-82
2021/11/08 13:38:45;;;;;;;2.97;1.98;;;11.20;1.00;;;;;;5117291;28;20100;-82
2021/11/08 13:41:27;;;;;;;4.53;2.28;;;11.20;1.00;;;;;;5117628;28;20035;-82
2021/11/08 13:43:58;;;;;;;3.35;1.75;;;11.00;1.00;;;;;;5098741;28;20031;-82
2021/11/08 13:46:34;;;;;;;3.78;1.67;;;11.10;1.00;;;;;;5099763;28;20363;-82
2021/11/08 13:49:07;;;;;;;2.80;1.48;;;11.00;1.00;;;;;;5098698;28;20036;-82
2021/11/08 13:51:51;;;;;;;1.70;1.45;;;11.10;1.00;;;;;;5117825;28;20047;-82
2021/11/08 13:54:28;;;;;;;6.63;1.80;;;11.00;1.00;;;;;;5117104;28;20058;-82
2021/11/08 13:57:16;;;;;;;5.82;2.15;;;10.90;1.00;;;;;;5117467;28;20070;-82
2021/11/08 13:59:46;;;;;;;4.32;1.80;;;10.70;1.00;;;;;;5117398;28;20398;-82
2021/11/08 14:02:17;;;;;;;6.10;1.90;;;10.60;1.00;;;;;;5117210;28;20074;-82
2021/11/08 14:04:49;;;;;;;7.47;1.80;;;10.50;1.00;;;;;;5116151;28;20521;-82
2021/11/08 14:07:19;;;;;;;4.72;2.05;;;10.50;1.00;;;;;;5115477;28;20055;-81
2021/11/08 14:09:44;;;;;;;4.90;1.98;;;10.50;1.00;;;;;;5114805;28;20040;-81
2021/11/08 14:12:13;;;;;;;4.30;1.70;;;10.60;1.00;;;;;;5098764;28;20038;-80
2021/11/08 14:14:40;;;;;;;4.55;2.00;;;10.50;1.00;;;;;;5116583;28;20040;-81
2021/11/08 14:17:11;;;;;;;5.78;2.20;;;10.60;1.00;;;;;;5116570;28;20486;-80
2021/11/08 14:19:37;;;;;;;3.03;1.58;;;10.60;1.00;;;;;;5099038;28;20170;-80
2021/11/08 14:22:03;;;;;;;2.75;1.55;;;10.80;1.00;;;;;;5116575;28;20039;-80
2021/11/08 14:24:32;;;;;;;4.65;2.05;;;10.80;1.00;;;;;;5097708;28;20032;-80
2021/11/08 14:26:59;;;;;;;5.63;1.58;;;10.80;1.00;;;;;;5115475;28;20122;-77
2021/11/08 14:29:29;;;;;;;2.78;1.60;;;10.90;1.00;;;;;;5116573;28;20044;-78
2021/11/08 14:31:58;;;;;;;3.13;1.60;;;10.90;1.00;;;;;;5115902;28;20040;-78
2021/11/08 14:34:28;;;;;;;3.97;1.63;;;10.80;1.00;;;;;;5115342;28;20096;-76
2021/11/08 14:36:55;;;;;;;4.47;1.75;;;10.80;1.00;;;;;;5115433;28;20051;-76
2021/11/08 14:39:25;;;;;;;2.83;1.45;;;10.70;1.00;;;;;;5116455;28;20032;-76
2021/11/08 14:42:05;;;;;;;3.80;1.60;;;10.70;1.00;;;;;;5097242;28;20044;-76
2021/11/08 14:44:40;;;;;;;4.28;1.75;;;10.70;1.00;;;;;;5113880;28;20509;-75
2021/11/08 14:47:33;;;;;;;3.35;1.35;;;10.70;1.00;;;;;;5101655;28;20048;-76
2021/11/08 14:50:04;;;;;;;4.13;1.50;;;10.70;1.00;;;;;;5089550;28;20036;-76
2021/11/08 14:52:40;;;;;;;2.40;1.40;;;10.60;1.00;;;;;;5093870;28;20050;-76
2021/11/08 14:55:25;;;;;;;4.35;1.52;;;10.60;1.00;;;;;;5093849;28;20078;-76
2021/11/08 14:57:53;;;;;;;3.35;1.48;;;10.50;1.00;;;;;;5093800;28;20070;-76
2021/11/08 15:00:33;;;;;;;4.78;1.63;;;10.50;1.00;;;;;;5093611;28;20101;-76
2021/11/08 15:03:13;;;;;;;4.85;1.40;;;10.50;1.00;;;;;;5093393;28;20040;-76